sensor_id;sensor_type;location;lat;lon;timestamp;temperature;humidity
44117;DHT22;29781;49.480;8.512;2023-05-07T00:00:46;17.00;99.90
44117;DHT22;29781;49.480;8.512;2023-05-07T00:03:12;17.10;99.90
44117;DHT22;29781;49.480;8.512;2023-05-07T00:05:39;17.00;99.90
44117;DHT22;29781;49.480;8.512;2023-05-07T00:08:04;17.00;99.90
44117;DHT22;29781;49.480;8.512;2023-05-07T00:10:30;16.90;99.90
44117;DHT22;29781;49.480;8.512;2023-05-07T00:12:55;17.10;99.90
44117;DHT22;29781;49.480;8.512;2023-05-07T00:15:21;17.20;99.90
44117;DHT22;29781;49.480;8.512;2023-05-07T00:17:46;17.10;99.90
44117;DHT22;29781;49.480;8.512;2023-05-07T00:20:12;16.80;99.90
44117;DHT22;29781;49.480;8.512;2023-05-07T00:22:37;16.40;99.90
44117;DHT22;29781;49.480;8.512;2023-05-07T00:25:04;16.10;99.90
44117;DHT22;29781;49.480;8.512;2023-05-07T00:27:29;16.00;99.90
44117;DHT22;29781;49.480;8.512;2023-05-07T00:29:55;16.10;99.90
44117;DHT22;29781;49.480;8.512;2023-05-07T00:32:20;16.30;99.90
44117;DHT22;29781;49.480;8.512;2023-05-07T00:34:46;16.30;99.90
44117;DHT22;29781;49.480;8.512;2023-05-07T00:37:11;16.30;99.90
44117;DHT22;29781;49.480;8.512;2023-05-07T00:39:37;16.40;99.90
44117;DHT22;29781;49.480;8.512;2023-05-07T00:42:03;16.40;99.90
44117;DHT22;29781;49.480;8.512;2023-05-07T00:44:29;16.30;99.90
44117;DHT22;29781;49.480;8.512;2023-05-07T00:46:56;16.40;99.90
44117;DHT22;29781;49.480;8.512;2023-05-07T00:49:24;16.50;99.90
44117;DHT22;29781;49.480;8.512;2023-05-07T00:51:52;16.60;99.90
44117;DHT22;29781;49.480;8.512;2023-05-07T00:54:17;16.70;99.90
44117;DHT22;29781;49.480;8.512;2023-05-07T00:56:44;16.60;99.90
44117;DHT22;29781;49.480;8.512;2023-05-07T00:59:10;16.60;99.90
44117;DHT22;29781;49.480;8.512;2023-05-07T01:01:36;16.40;99.90
44117;DHT22;29781;49.480;8.512;2023-05-07T01:04:02;16.40;99.90
44117;DHT22;29781;49.480;8.512;2023-05-07T01:06:29;16.50;99.90
44117;DHT22;29781;49.480;8.512;2023-05-07T01:08:55;16.50;99.90
44117;DHT22;29781;49.480;8.512;2023-05-07T01:11:23;16.50;99.90
44117;DHT22;29781;49.480;8.512;2023-05-07T01:13:49;16.20;99.90
44117;DHT22;29781;49.480;8.512;2023-05-07T01:16:15;16.00;99.90
44117;DHT22;29781;49.480;8.512;2023-05-07T01:18:41;15.80;99.90
44117;DHT22;29781;49.480;8.512;2023-05-07T01:21:08;15.60;99.90
44117;DHT22;29781;49.480;8.512;2023-05-07T01:23:36;15.60;99.90
44117;DHT22;29781;49.480;8.512;2023-05-07T01:26:02;15.80;99.90
44117;DHT22;29781;49.480;8.512;2023-05-07T01:28:27;15.70;99.90
44117;DHT22;29781;49.480;8.512;2023-05-07T01:30:55;15.80;99.90
44117;DHT22;29781;49.480;8.512;2023-05-07T01:33:23;15.90;99.90
44117;DHT22;29781;49.480;8.512;2023-05-07T01:35:52;15.90;99.90
44117;DHT22;29781;49.480;8.512;2023-05-07T01:38:18;16.10;99.90
44117;DHT22;29781;49.480;8.512;2023-05-07T01:40:45;16.20;99.90
44117;DHT22;29781;49.480;8.512;2023-05-07T01:43:11;16.20;99.90
44117;DHT22;29781;49.480;8.512;2023-05-07T01:45:38;16.20;99.90
44117;DHT22;29781;49.480;8.512;2023-05-07T01:48:04;16.30;99.90
44117;DHT22;29781;49.480;8.512;2023-05-07T01:50:33;16.40;99.90
44117;DHT22;29781;49.480;8.512;2023-05-07T01:52:59;16.30;99.90
44117;DHT22;29781;49.480;8.512;2023-05-07T01:55:24;16.20;99.90
44117;DHT22;29781;49.480;8.512;2023-05-07T01:57:50;16.20;99.90
44117;DHT22;29781;49.480;8.512;2023-05-07T02:00:16;16.10;99.90
44117;DHT22;29781;49.480;8.512;2023-05-07T02:02:42;16.10;99.90
44117;DHT22;29781;49.480;8.512;2023-05-07T02:05:08;16.00;99.90
44117;DHT22;29781;49.480;8.512;2023-05-07T02:07:34;15.90;99.90
44117;DHT22;29781;49.480;8.512;2023-05-07T02:09:59;15.70;99.90
44117;DHT22;29781;49.480;8.512;2023-05-07T02:12:25;15.70;99.90
44117;DHT22;29781;49.480;8.512;2023-05-07T02:14:50;15.70;99.90
44117;DHT22;29781;49.480;8.512;2023-05-07T02:17:16;15.70;99.90
44117;DHT22;29781;49.480;8.512;2023-05-07T02:19:41;15.60;99.90
44117;DHT22;29781;49.480;8.512;2023-05-07T02:22:07;15.60;99.90
44117;DHT22;29781;49.480;8.512;2023-05-07T02:24:33;15.60;99.90
44117;DHT22;29781;49.480;8.512;2023-05-07T02:26:58;15.60;99.90
44117;DHT22;29781;49.480;8.512;2023-05-07T02:29:24;15.70;99.90
44117;DHT22;29781;49.480;8.512;2023-05-07T02:31:49;15.70;99.90
44117;DHT22;29781;49.480;8.512;2023-05-07T02:34:16;15.60;99.90
44117;DHT22;29781;49.480;8.512;2023-05-07T02:36:42;15.50;99.90
44117;DHT22;29781;49.480;8.512;2023-05-07T02:39:08;15.40;99.90
44117;DHT22;29781;49.480;8.512;2023-05-07T02:41:33;15.50;99.90
44117;DHT22;29781;49.480;8.512;2023-05-07T02:43:59;15.60;99.90
44117;DHT22;29781;49.480;8.512;2023-05-07T02:46:25;15.60;99.90
44117;DHT22;29781;49.480;8.512;2023-05-07T02:48:50;15.40;99.90
44117;DHT22;29781;49.480;8.512;2023-05-07T02:51:19;15.20;99.90
44117;DHT22;29781;49.480;8.512;2023-05-07T02:53:45;15.10;99.90
44117;DHT22;29781;49.480;8.512;2023-05-07T02:56:11;14.90;99.90
44117;DHT22;29781;49.480;8.512;2023-05-07T02:58:36;15.00;99.90
44117;DHT22;29781;49.480;8.512;2023-05-07T03:01:02;14.90;99.90
44117;DHT22;29781;49.480;8.512;2023-05-07T03:03:27;14.90;99.90
44117;DHT22;29781;49.480;8.512;2023-05-07T03:05:53;15.00;99.90
44117;DHT22;29781;49.480;8.512;2023-05-07T03:08:18;14.80;99.90
44117;DHT22;29781;49.480;8.512;2023-05-07T03:10:44;15.00;99.90
44117;DHT22;29781;49.480;8.512;2023-05-07T03:13:09;15.00;99.90
44117;DHT22;29781;49.480;8.512;2023-05-07T03:15:35;15.00;99.90
44117;DHT22;29781;49.480;8.512;2023-05-07T03:18:01;14.80;99.90
44117;DHT22;29781;49.480;8.512;2023-05-07T03:20:27;14.70;99.90
44117;DHT22;29781;49.480;8.512;2023-05-07T03:22:52;14.80;99.90
44117;DHT22;29781;49.480;8.512;2023-05-07T03:25:18;14.70;99.90
44117;DHT22;29781;49.480;8.512;2023-05-07T03:27:43;14.80;99.90
44117;DHT22;29781;49.480;8.512;2023-05-07T03:30:09;14.70;99.90
44117;DHT22;29781;49.480;8.512;2023-05-07T03:32:35;14.80;99.90
44117;DHT22;29781;49.480;8.512;2023-05-07T03:35:01;14.70;99.90
44117;DHT22;29781;49.480;8.512;2023-05-07T03:37:27;14.70;99.90
44117;DHT22;29781;49.480;8.512;2023-05-07T03:39:53;14.80;99.90
44117;DHT22;29781;49.480;8.512;2023-05-07T03:42:18;14.80;99.90
44117;DHT22;29781;49.480;8.512;2023-05-07T03:44:44;15.00;99.90
44117;DHT22;29781;49.480;8.512;2023-05-07T03:47:10;15.00;99.90
44117;DHT22;29781;49.480;8.512;2023-05-07T03:49:35;15.10;99.90
44117;DHT22;29781;49.480;8.512;2023-05-07T03:52:01;15.20;99.90
44117;DHT22;29781;49.480;8.512;2023-05-07T03:54:26;15.10;99.90
44117;DHT22;29781;49.480;8.512;2023-05-07T03:56:52;15.20;99.90
44117;DHT22;29781;49.480;8.512;2023-05-07T03:59:17;15.20;99.90
44117;DHT22;29781;49.480;8.512;2023-05-07T04:01:43;15.00;99.90
44117;DHT22;29781;49.480;8.512;2023-05-07T04:04:08;14.90;99.90
44117;DHT22;29781;49.480;8.512;2023-05-07T04:06:34;14.90;99.90
44117;DHT22;29781;49.480;8.512;2023-05-07T04:08:59;14.90;99.90
44117;DHT22;29781;49.480;8.512;2023-05-07T04:11:25;14.80;99.90
44117;DHT22;29781;49.480;8.512;2023-05-07T04:13:51;14.70;99.90
44117;DHT22;29781;49.480;8.512;2023-05-07T04:16:16;14.70;99.90
44117;DHT22;29781;49.480;8.512;2023-05-07T04:18:42;14.50;99.90
44117;DHT22;29781;49.480;8.512;2023-05-07T04:21:18;14.60;99.90
44117;DHT22;29781;49.480;8.512;2023-05-07T04:23:44;14.50;99.90
44117;DHT22;29781;49.480;8.512;2023-05-07T04:26:09;14.60;99.90
44117;DHT22;29781;49.480;8.512;2023-05-07T04:28:35;14.80;99.90
44117;DHT22;29781;49.480;8.512;2023-05-07T04:31:01;14.60;99.90
44117;DHT22;29781;49.480;8.512;2023-05-07T04:33:27;14.70;99.90
44117;DHT22;29781;49.480;8.512;2023-05-07T04:35:52;14.60;99.90
44117;DHT22;29781;49.480;8.512;2023-05-07T04:38:18;14.70;99.90
44117;DHT22;29781;49.480;8.512;2023-05-07T04:40:44;14.70;99.90
44117;DHT22;29781;49.480;8.512;2023-05-07T04:43:10;14.70;99.90
44117;DHT22;29781;49.480;8.512;2023-05-07T04:45:36;14.60;99.90
44117;DHT22;29781;49.480;8.512;2023-05-07T04:48:01;14.50;99.90
44117;DHT22;29781;49.480;8.512;2023-05-07T04:50:27;14.30;99.90
44117;DHT22;29781;49.480;8.512;2023-05-07T04:52:52;14.20;99.90
44117;DHT22;29781;49.480;8.512;2023-05-07T04:55:18;14.30;99.90
44117;DHT22;29781;49.480;8.512;2023-05-07T04:57:43;14.30;99.90
44117;DHT22;29781;49.480;8.512;2023-05-07T05:00:09;14.40;99.90
44117;DHT22;29781;49.480;8.512;2023-05-07T05:02:35;14.60;99.90
44117;DHT22;29781;49.480;8.512;2023-05-07T05:05:01;14.70;99.90
44117;DHT22;29781;49.480;8.512;2023-05-07T05:07:27;14.80;99.90
44117;DHT22;29781;49.480;8.512;2023-05-07T05:09:54;14.80;99.90
44117;DHT22;29781;49.480;8.512;2023-05-07T05:12:20;14.80;99.90
44117;DHT22;29781;49.480;8.512;2023-05-07T05:14:45;14.70;99.90
44117;DHT22;29781;49.480;8.512;2023-05-07T05:17:11;14.60;99.90
44117;DHT22;29781;49.480;8.512;2023-05-07T05:19:36;14.70;99.90
44117;DHT22;29781;49.480;8.512;2023-05-07T05:22:02;14.80;99.90
44117;DHT22;29781;49.480;8.512;2023-05-07T05:24:29;14.80;99.90
44117;DHT22;29781;49.480;8.512;2023-05-07T05:26:55;14.80;99.90
44117;DHT22;29781;49.480;8.512;2023-05-07T05:29:20;14.90;99.90
44117;DHT22;29781;49.480;8.512;2023-05-07T05:31:46;15.20;99.90
44117;DHT22;29781;49.480;8.512;2023-05-07T05:34:11;15.50;99.90
44117;DHT22;29781;49.480;8.512;2023-05-07T05:36:37;15.80;99.90
44117;DHT22;29781;49.480;8.512;2023-05-07T05:39:02;16.00;99.90
44117;DHT22;29781;49.480;8.512;2023-05-07T05:41:28;16.20;99.90
44117;DHT22;29781;49.480;8.512;2023-05-07T05:43:54;16.40;99.90
44117;DHT22;29781;49.480;8.512;2023-05-07T05:46:19;16.50;99.90
44117;DHT22;29781;49.480;8.512;2023-05-07T05:48:45;16.40;99.90
44117;DHT22;29781;49.480;8.512;2023-05-07T05:51:10;16.10;99.90
44117;DHT22;29781;49.480;8.512;2023-05-07T05:53:36;16.30;99.90
44117;DHT22;29781;49.480;8.512;2023-05-07T05:56:02;16.50;99.90
44117;DHT22;29781;49.480;8.512;2023-05-07T05:58:27;16.50;99.90
44117;DHT22;29781;49.480;8.512;2023-05-07T06:00:53;16.70;99.90
44117;DHT22;29781;49.480;8.512;2023-05-07T06:03:19;16.80;99.90
44117;DHT22;29781;49.480;8.512;2023-05-07T06:05:44;16.90;99.90
44117;DHT22;29781;49.480;8.512;2023-05-07T06:08:10;16.70;99.90
44117;DHT22;29781;49.480;8.512;2023-05-07T06:10:38;16.70;99.90
44117;DHT22;29781;49.480;8.512;2023-05-07T06:13:04;16.80;99.90
44117;DHT22;29781;49.480;8.512;2023-05-07T06:15:30;17.10;99.90
44117;DHT22;29781;49.480;8.512;2023-05-07T06:17:56;17.00;99.90
44117;DHT22;29781;49.480;8.512;2023-05-07T06:20:22;17.10;99.90
44117;DHT22;29781;49.480;8.512;2023-05-07T06:22:48;17.10;99.90
44117;DHT22;29781;49.480;8.512;2023-05-07T06:25:14;17.10;99.90
44117;DHT22;29781;49.480;8.512;2023-05-07T06:27:39;16.90;99.90
44117;DHT22;29781;49.480;8.512;2023-05-07T06:30:06;16.90;99.90
44117;DHT22;29781;49.480;8.512;2023-05-07T06:32:31;17.20;99.90
44117;DHT22;29781;49.480;8.512;2023-05-07T06:34:57;17.50;99.90
44117;DHT22;29781;49.480;8.512;2023-05-07T06:37:22;17.20;99.90
44117;DHT22;29781;49.480;8.512;2023-05-07T06:39:48;17.10;99.90
44117;DHT22;29781;49.480;8.512;2023-05-07T06:42:14;17.10;99.90
44117;DHT22;29781;49.480;8.512;2023-05-07T06:44:39;17.20;99.90
44117;DHT22;29781;49.480;8.512;2023-05-07T06:47:05;17.10;99.90
44117;DHT22;29781;49.480;8.512;2023-05-07T06:49:30;17.10;99.90
44117;DHT22;29781;49.480;8.512;2023-05-07T06:51:56;17.00;99.90
44117;DHT22;29781;49.480;8.512;2023-05-07T06:54:23;17.00;99.90
44117;DHT22;29781;49.480;8.512;2023-05-07T06:56:48;17.10;99.90
44117;DHT22;29781;49.480;8.512;2023-05-07T06:59:14;17.10;99.90
44117;DHT22;29781;49.480;8.512;2023-05-07T07:01:39;17.10;99.90
44117;DHT22;29781;49.480;8.512;2023-05-07T07:04:05;17.10;99.90
44117;DHT22;29781;49.480;8.512;2023-05-07T07:06:31;17.30;99.90
44117;DHT22;29781;49.480;8.512;2023-05-07T07:08:57;17.50;99.90
44117;DHT22;29781;49.480;8.512;2023-05-07T07:11:23;17.70;99.90
44117;DHT22;29781;49.480;8.512;2023-05-07T07:13:48;17.80;99.90
44117;DHT22;29781;49.480;8.512;2023-05-07T07:16:14;17.60;99.90
44117;DHT22;29781;49.480;8.512;2023-05-07T07:18:40;17.70;99.90
44117;DHT22;29781;49.480;8.512;2023-05-07T07:21:05;17.90;99.90
44117;DHT22;29781;49.480;8.512;2023-05-07T07:23:31;18.10;99.90
44117;DHT22;29781;49.480;8.512;2023-05-07T07:25:56;18.40;99.90
44117;DHT22;29781;49.480;8.512;2023-05-07T07:28:22;18.70;99.90
44117;DHT22;29781;49.480;8.512;2023-05-07T07:30:47;18.80;99.90
44117;DHT22;29781;49.480;8.512;2023-05-07T07:33:13;18.90;99.90
44117;DHT22;29781;49.480;8.512;2023-05-07T07:35:39;18.90;99.90
44117;DHT22;29781;49.480;8.512;2023-05-07T07:38:05;19.00;99.90
44117;DHT22;29781;49.480;8.512;2023-05-07T07:40:30;19.00;99.90
44117;DHT22;29781;49.480;8.512;2023-05-07T07:42:56;18.80;99.90
44117;DHT22;29781;49.480;8.512;2023-05-07T07:45:22;18.90;99.90
44117;DHT22;29781;49.480;8.512;2023-05-07T07:47:47;19.20;99.90
44117;DHT22;29781;49.480;8.512;2023-05-07T07:50:13;19.30;99.90
44117;DHT22;29781;49.480;8.512;2023-05-07T07:52:39;19.40;99.90
44117;DHT22;29781;49.480;8.512;2023-05-07T07:55:05;19.50;99.90
44117;DHT22;29781;49.480;8.512;2023-05-07T07:57:30;19.60;99.90
44117;DHT22;29781;49.480;8.512;2023-05-07T07:59:56;19.50;99.90
44117;DHT22;29781;49.480;8.512;2023-05-07T08:02:22;19.30;99.90
44117;DHT22;29781;49.480;8.512;2023-05-07T08:04:47;19.30;99.90
44117;DHT22;29781;49.480;8.512;2023-05-07T08:07:13;19.10;99.90
44117;DHT22;29781;49.480;8.512;2023-05-07T08:09:39;19.10;99.90
44117;DHT22;29781;49.480;8.512;2023-05-07T08:12:07;19.00;99.90
44117;DHT22;29781;49.480;8.512;2023-05-07T08:14:34;19.00;99.90
44117;DHT22;29781;49.480;8.512;2023-05-07T08:16:59;19.00;99.90
44117;DHT22;29781;49.480;8.512;2023-05-07T08:19:25;19.20;99.90
44117;DHT22;29781;49.480;8.512;2023-05-07T08:21:51;19.20;99.90
44117;DHT22;29781;49.480;8.512;2023-05-07T08:24:17;19.30;99.90
44117;DHT22;29781;49.480;8.512;2023-05-07T08:26:43;19.30;99.90
44117;DHT22;29781;49.480;8.512;2023-05-07T08:29:09;19.00;99.90
44117;DHT22;29781;49.480;8.512;2023-05-07T08:31:35;18.80;99.90
44117;DHT22;29781;49.480;8.512;2023-05-07T08:34:00;18.90;99.90
44117;DHT22;29781;49.480;8.512;2023-05-07T08:36:26;19.00;99.90
44117;DHT22;29781;49.480;8.512;2023-05-07T08:38:52;19.20;99.90
44117;DHT22;29781;49.480;8.512;2023-05-07T08:41:18;19.30;99.90
44117;DHT22;29781;49.480;8.512;2023-05-07T08:43:47;19.30;99.90
44117;DHT22;29781;49.480;8.512;2023-05-07T08:46:17;19.20;99.90
44117;DHT22;29781;49.480;8.512;2023-05-07T08:48:44;19.20;99.90
44117;DHT22;29781;49.480;8.512;2023-05-07T08:51:13;19.30;99.90
44117;DHT22;29781;49.480;8.512;2023-05-07T08:53:43;19.50;99.90
44117;DHT22;29781;49.480;8.512;2023-05-07T08:56:09;19.70;99.90
44117;DHT22;29781;49.480;8.512;2023-05-07T08:58:35;19.50;99.90
44117;DHT22;29781;49.480;8.512;2023-05-07T09:01:16;19.20;99.90
44117;DHT22;29781;49.480;8.512;2023-05-07T09:03:44;19.00;99.90
44117;DHT22;29781;49.480;8.512;2023-05-07T09:06:09;19.00;99.90
44117;DHT22;29781;49.480;8.512;2023-05-07T09:08:36;19.30;99.90
44117;DHT22;29781;49.480;8.512;2023-05-07T09:11:01;19.20;99.90
44117;DHT22;29781;49.480;8.512;2023-05-07T09:13:28;19.20;99.90
44117;DHT22;29781;49.480;8.512;2023-05-07T09:15:53;19.10;99.90
44117;DHT22;29781;49.480;8.512;2023-05-07T09:18:19;19.50;99.90
44117;DHT22;29781;49.480;8.512;2023-05-07T09:20:44;19.50;99.90
44117;DHT22;29781;49.480;8.512;2023-05-07T09:23:10;19.70;99.90
44117;DHT22;29781;49.480;8.512;2023-05-07T09:25:36;19.80;99.90
44117;DHT22;29781;49.480;8.512;2023-05-07T09:28:03;20.10;99.90
44117;DHT22;29781;49.480;8.512;2023-05-07T09:30:30;20.50;99.90
44117;DHT22;29781;49.480;8.512;2023-05-07T09:32:58;20.20;99.90
44117;DHT22;29781;49.480;8.512;2023-05-07T09:35:24;19.90;99.90
44117;DHT22;29781;49.480;8.512;2023-05-07T09:37:53;19.70;99.90
44117;DHT22;29781;49.480;8.512;2023-05-07T09:40:29;19.80;99.90
44117;DHT22;29781;49.480;8.512;2023-05-07T09:42:55;19.70;99.90
44117;DHT22;29781;49.480;8.512;2023-05-07T09:45:28;19.80;99.90
44117;DHT22;29781;49.480;8.512;2023-05-07T09:47:58;19.80;99.90
44117;DHT22;29781;49.480;8.512;2023-05-07T09:50:29;19.90;99.90
44117;DHT22;29781;49.480;8.512;2023-05-07T09:52:56;19.90;99.90
44117;DHT22;29781;49.480;8.512;2023-05-07T09:55:22;20.00;99.90
44117;DHT22;29781;49.480;8.512;2023-05-07T09:57:51;20.10;99.90
44117;DHT22;29781;49.480;8.512;2023-05-07T10:00:19;20.30;99.90
44117;DHT22;29781;49.480;8.512;2023-05-07T10:02:46;20.60;99.90
44117;DHT22;29781;49.480;8.512;2023-05-07T10:05:14;20.80;99.90
44117;DHT22;29781;49.480;8.512;2023-05-07T10:07:40;21.10;99.90
44117;DHT22;29781;49.480;8.512;2023-05-07T10:10:06;21.20;99.90
44117;DHT22;29781;49.480;8.512;2023-05-07T10:12:32;21.00;99.90
44117;DHT22;29781;49.480;8.512;2023-05-07T10:15:09;20.80;99.90
44117;DHT22;29781;49.480;8.512;2023-05-07T10:17:36;21.00;99.90
44117;DHT22;29781;49.480;8.512;2023-05-07T10:20:02;21.00;99.90
44117;DHT22;29781;49.480;8.512;2023-05-07T10:22:32;20.90;99.90
44117;DHT22;29781;49.480;8.512;2023-05-07T10:24:59;21.00;99.90
44117;DHT22;29781;49.480;8.512;2023-05-07T10:27:28;21.40;99.90
44117;DHT22;29781;49.480;8.512;2023-05-07T10:32:49;21.50;99.90
44117;DHT22;29781;49.480;8.512;2023-05-07T10:35:20;21.60;99.90
44117;DHT22;29781;49.480;8.512;2023-05-07T10:37:47;21.70;99.90
44117;DHT22;29781;49.480;8.512;2023-05-07T10:40:13;21.80;99.90
44117;DHT22;29781;49.480;8.512;2023-05-07T10:42:39;21.90;99.90
44117;DHT22;29781;49.480;8.512;2023-05-07T10:45:18;22.00;99.90
44117;DHT22;29781;49.480;8.512;2023-05-07T10:50:31;22.00;99.90
44117;DHT22;29781;49.480;8.512;2023-05-07T10:55:50;22.50;99.90
44117;DHT22;29781;49.480;8.512;2023-05-07T10:58:28;22.60;99.90
44117;DHT22;29781;49.480;8.512;2023-05-07T11:00:59;22.80;99.90
44117;DHT22;29781;49.480;8.512;2023-05-07T11:03:25;22.80;99.90
44117;DHT22;29781;49.480;8.512;2023-05-07T11:06:11;22.70;99.90
44117;DHT22;29781;49.480;8.512;2023-05-07T11:08:52;22.70;99.90
44117;DHT22;29781;49.480;8.512;2023-05-07T11:11:18;22.80;99.90
44117;DHT22;29781;49.480;8.512;2023-05-07T11:13:46;23.30;99.90
44117;DHT22;29781;49.480;8.512;2023-05-07T11:16:19;24.00;99.90
44117;DHT22;29781;49.480;8.512;2023-05-07T11:18:53;24.30;99.90
44117;DHT22;29781;49.480;8.512;2023-05-07T11:21:37;23.70;99.90
44117;DHT22;29781;49.480;8.512;2023-05-07T11:24:04;23.20;99.90
44117;DHT22;29781;49.480;8.512;2023-05-07T11:26:41;22.90;99.90
44117;DHT22;29781;49.480;8.512;2023-05-07T11:29:11;22.90;99.90
44117;DHT22;29781;49.480;8.512;2023-05-07T11:31:37;23.00;99.90
44117;DHT22;29781;49.480;8.512;2023-05-07T11:34:02;23.10;99.90
44117;DHT22;29781;49.480;8.512;2023-05-07T11:36:31;23.30;99.90
44117;DHT22;29781;49.480;8.512;2023-05-07T11:38:57;23.40;99.90
44117;DHT22;29781;49.480;8.512;2023-05-07T11:41:22;23.20;99.90
44117;DHT22;29781;49.480;8.512;2023-05-07T11:43:58;23.20;99.90
44117;DHT22;29781;49.480;8.512;2023-05-07T11:46:25;23.40;99.90
44117;DHT22;29781;49.480;8.512;2023-05-07T11:48:51;23.50;99.90
44117;DHT22;29781;49.480;8.512;2023-05-07T11:51:22;23.90;99.90
44117;DHT22;29781;49.480;8.512;2023-05-07T11:53:48;23.90;99.90
44117;DHT22;29781;49.480;8.512;2023-05-07T11:56:16;23.60;99.90
44117;DHT22;29781;49.480;8.512;2023-05-07T11:58:43;23.60;99.90
44117;DHT22;29781;49.480;8.512;2023-05-07T12:01:10;23.50;99.90
44117;DHT22;29781;49.480;8.512;2023-05-07T12:03:37;23.40;99.90
44117;DHT22;29781;49.480;8.512;2023-05-07T12:06:08;23.50;99.90
44117;DHT22;29781;49.480;8.512;2023-05-07T12:08:36;23.60;99.90
44117;DHT22;29781;49.480;8.512;2023-05-07T12:11:03;23.80;99.90
44117;DHT22;29781;49.480;8.512;2023-05-07T12:13:32;23.90;99.90
44117;DHT22;29781;49.480;8.512;2023-05-07T12:15:57;23.80;99.90
44117;DHT22;29781;49.480;8.512;2023-05-07T12:18:23;23.80;99.90
44117;DHT22;29781;49.480;8.512;2023-05-07T12:20:50;23.70;99.90
44117;DHT22;29781;49.480;8.512;2023-05-07T12:23:16;24.10;99.90
44117;DHT22;29781;49.480;8.512;2023-05-07T12:25:43;24.40;99.90
44117;DHT22;29781;49.480;8.512;2023-05-07T12:28:16;24.50;99.90
44117;DHT22;29781;49.480;8.512;2023-05-07T12:30:46;24.40;99.90
44117;DHT22;29781;49.480;8.512;2023-05-07T12:33:13;24.70;99.90
44117;DHT22;29781;49.480;8.512;2023-05-07T12:35:42;24.90;99.90
44117;DHT22;29781;49.480;8.512;2023-05-07T12:38:09;24.90;99.90
44117;DHT22;29781;49.480;8.512;2023-05-07T12:40:42;25.00;99.90
44117;DHT22;29781;49.480;8.512;2023-05-07T12:43:18;25.00;99.90
44117;DHT22;29781;49.480;8.512;2023-05-07T12:45:45;24.80;99.90
44117;DHT22;29781;49.480;8.512;2023-05-07T12:48:12;24.60;99.90
44117;DHT22;29781;49.480;8.512;2023-05-07T12:50:37;24.50;99.90
44117;DHT22;29781;49.480;8.512;2023-05-07T12:53:04;24.20;99.90
44117;DHT22;29781;49.480;8.512;2023-05-07T12:55:40;24.00;99.90
44117;DHT22;29781;49.480;8.512;2023-05-07T12:58:06;23.90;99.90
44117;DHT22;29781;49.480;8.512;2023-05-07T13:00:38;23.90;99.90
44117;DHT22;29781;49.480;8.512;2023-05-07T13:03:04;24.00;99.90
44117;DHT22;29781;49.480;8.512;2023-05-07T13:05:31;24.20;99.90
44117;DHT22;29781;49.480;8.512;2023-05-07T13:07:57;24.30;99.90
44117;DHT22;29781;49.480;8.512;2023-05-07T13:10:23;24.50;99.90
44117;DHT22;29781;49.480;8.512;2023-05-07T13:12:49;24.70;99.90
44117;DHT22;29781;49.480;8.512;2023-05-07T13:15:16;24.70;99.90
44117;DHT22;29781;49.480;8.512;2023-05-07T13:17:41;24.80;99.90
44117;DHT22;29781;49.480;8.512;2023-05-07T13:20:09;24.70;99.90
44117;DHT22;29781;49.480;8.512;2023-05-07T13:22:35;24.70;99.90
44117;DHT22;29781;49.480;8.512;2023-05-07T13:25:01;24.50;99.90
44117;DHT22;29781;49.480;8.512;2023-05-07T13:27:26;24.50;99.90
44117;DHT22;29781;49.480;8.512;2023-05-07T13:29:52;24.50;99.90
44117;DHT22;29781;49.480;8.512;2023-05-07T13:32:17;24.40;99.90
44117;DHT22;29781;49.480;8.512;2023-05-07T13:34:43;24.40;99.90
44117;DHT22;29781;49.480;8.512;2023-05-07T13:37:08;24.50;99.90
44117;DHT22;29781;49.480;8.512;2023-05-07T13:39:34;24.60;99.90
44117;DHT22;29781;49.480;8.512;2023-05-07T13:41:59;24.70;99.90
44117;DHT22;29781;49.480;8.512;2023-05-07T13:44:26;24.60;99.90
44117;DHT22;29781;49.480;8.512;2023-05-07T13:46:51;24.40;99.90
44117;DHT22;29781;49.480;8.512;2023-05-07T13:49:17;24.20;99.90
44117;DHT22;29781;49.480;8.512;2023-05-07T13:51:42;24.20;99.90
44117;DHT22;29781;49.480;8.512;2023-05-07T13:54:08;24.30;99.90
44117;DHT22;29781;49.480;8.512;2023-05-07T13:56:33;24.30;99.90
44117;DHT22;29781;49.480;8.512;2023-05-07T13:58:59;24.10;99.90
44117;DHT22;29781;49.480;8.512;2023-05-07T14:01:25;23.90;99.90
44117;DHT22;29781;49.480;8.512;2023-05-07T14:03:50;23.70;99.90
44117;DHT22;29781;49.480;8.512;2023-05-07T14:06:16;23.60;99.90
44117;DHT22;29781;49.480;8.512;2023-05-07T14:08:41;23.30;99.90
44117;DHT22;29781;49.480;8.512;2023-05-07T14:11:07;23.20;99.90
44117;DHT22;29781;49.480;8.512;2023-05-07T14:13:32;23.10;99.90
44117;DHT22;29781;49.480;8.512;2023-05-07T14:15:59;23.20;99.90
44117;DHT22;29781;49.480;8.512;2023-05-07T14:18:26;23.00;99.90
44117;DHT22;29781;49.480;8.512;2023-05-07T14:20:51;22.20;99.90
44117;DHT22;29781;49.480;8.512;2023-05-07T14:23:17;21.90;99.90
44117;DHT22;29781;49.480;8.512;2023-05-07T14:25:47;21.80;99.90
44117;DHT22;29781;49.480;8.512;2023-05-07T14:28:13;21.30;99.90
44117;DHT22;29781;49.480;8.512;2023-05-07T14:30:38;20.60;99.90
44117;DHT22;29781;49.480;8.512;2023-05-07T14:33:04;20.10;99.90
44117;DHT22;29781;49.480;8.512;2023-05-07T14:35:30;19.50;99.90
44117;DHT22;29781;49.480;8.512;2023-05-07T14:37:55;19.40;99.90
44117;DHT22;29781;49.480;8.512;2023-05-07T14:40:21;19.20;99.90
44117;DHT22;29781;49.480;8.512;2023-05-07T14:42:46;19.00;99.90
44117;DHT22;29781;49.480;8.512;2023-05-07T14:45:12;18.70;99.90
44117;DHT22;29781;49.480;8.512;2023-05-07T14:47:38;18.90;99.90
44117;DHT22;29781;49.480;8.512;2023-05-07T14:50:03;19.20;99.90
44117;DHT22;29781;49.480;8.512;2023-05-07T14:52:29;19.30;99.90
44117;DHT22;29781;49.480;8.512;2023-05-07T14:54:55;19.20;99.90
44117;DHT22;29781;49.480;8.512;2023-05-07T14:57:20;18.80;99.90
44117;DHT22;29781;49.480;8.512;2023-05-07T14:59:46;18.70;99.90
44117;DHT22;29781;49.480;8.512;2023-05-07T15:02:12;18.60;99.90
44117;DHT22;29781;49.480;8.512;2023-05-07T15:04:38;18.50;99.90
44117;DHT22;29781;49.480;8.512;2023-05-07T15:07:13;18.50;99.90
44117;DHT22;29781;49.480;8.512;2023-05-07T15:09:44;18.40;99.90
44117;DHT22;29781;49.480;8.512;2023-05-07T15:12:10;18.40;99.90
44117;DHT22;29781;49.480;8.512;2023-05-07T15:14:36;18.20;99.90
44117;DHT22;29781;49.480;8.512;2023-05-07T15:17:01;18.20;99.90
44117;DHT22;29781;49.480;8.512;2023-05-07T15:19:27;18.10;99.90
44117;DHT22;29781;49.480;8.512;2023-05-07T15:21:56;18.00;99.90
44117;DHT22;29781;49.480;8.512;2023-05-07T15:24:22;17.90;99.90
44117;DHT22;29781;49.480;8.512;2023-05-07T15:26:48;17.70;99.90
44117;DHT22;29781;49.480;8.512;2023-05-07T15:29:13;17.40;99.90
44117;DHT22;29781;49.480;8.512;2023-05-07T15:31:39;17.30;99.90
44117;DHT22;29781;49.480;8.512;2023-05-07T15:34:04;17.20;99.90